createdAt,value
2023-03-16T00:00:33.377Z,102
2023-03-16T00:01:39.612Z,103
2023-03-16T00:02:45.884Z,103
2023-03-16T00:03:52.161Z,103
2023-03-16T00:04:58.479Z,103
2023-03-16T00:06:04.807Z,103
2023-03-16T00:07:11.001Z,103
2023-03-16T00:08:17.253Z,103
2023-03-16T00:09:23.547Z,102
2023-03-16T00:10:28.824Z,102
2023-03-16T00:11:35.139Z,102
2023-03-16T00:12:41.392Z,103
2023-03-16T00:13:47.627Z,102
2023-03-16T00:14:53.930Z,103
2023-03-16T00:16:00.191Z,102
2023-03-16T00:17:06.555Z,102
2023-03-16T00:18:11.797Z,103
2023-03-16T00:19:17.027Z,102
2023-03-16T00:20:22.330Z,102
2023-03-16T00:21:27.621Z,102
2023-03-16T00:22:33.941Z,102
2023-03-16T00:23:40.166Z,103
2023-03-16T00:24:46.475Z,102
2023-03-16T00:25:52.739Z,102
2023-03-16T00:26:58.982Z,103
2023-03-16T00:28:05.254Z,102
2023-03-16T00:29:11.527Z,103
2023-03-16T00:30:17.790Z,103
2023-03-16T00:31:24.064Z,102
2023-03-16T00:32:30.340Z,102
2023-03-16T00:33:36.625Z,103
2023-03-16T00:34:42.881Z,103
2023-03-16T00:35:48.179Z,102
2023-03-16T00:36:54.468Z,103
2023-03-16T00:38:00.731Z,102
2023-03-16T00:39:06.982Z,102
2023-03-16T00:40:13.288Z,103
2023-03-16T00:41:19.534Z,102
2023-03-16T00:42:25.813Z,103
2023-03-16T00:43:31.108Z,103
2023-03-16T00:44:36.399Z,102
2023-03-16T00:45:41.689Z,103
2023-03-16T00:46:46.977Z,102
2023-03-16T00:47:53.250Z,103
2023-03-16T00:48:59.545Z,102
2023-03-16T00:50:05.968Z,103
2023-03-16T00:51:12.097Z,102
2023-03-16T00:52:18.368Z,102
2023-03-16T00:53:24.623Z,102
2023-03-16T00:54:30.925Z,103
2023-03-16T00:55:37.162Z,102
2023-03-16T00:56:43.434Z,103
2023-03-16T00:57:49.703Z,102
2023-03-16T00:58:55.979Z,103
2023-03-16T01:00:02.291Z,102
2023-03-16T01:01:07.533Z,103
2023-03-16T01:02:13.865Z,102
2023-03-16T01:03:20.092Z,103
2023-03-16T01:04:26.397Z,103
2023-03-16T01:05:32.628Z,102
2023-03-16T01:06:38.924Z,102
2023-03-16T01:07:45.174Z,102
2023-03-16T01:08:50.479Z,102
2023-03-16T01:09:55.788Z,102
2023-03-16T01:11:02.037Z,102
2023-03-16T01:12:08.309Z,102
2023-03-16T01:13:14.581Z,102
2023-03-16T01:14:20.937Z,103
2023-03-16T01:15:27.243Z,102
2023-03-16T01:16:33.400Z,102
2023-03-16T01:17:39.713Z,102
2023-03-16T01:18:45.953Z,103
2023-03-16T01:19:52.222Z,102
2023-03-16T01:20:58.489Z,103
2023-03-16T01:22:04.767Z,102
2023-03-16T01:23:11.042Z,102
2023-03-16T01:24:16.328Z,103
2023-03-16T01:25:22.622Z,103
2023-03-16T01:26:28.914Z,102
2023-03-16T01:27:35.159Z,102
2023-03-16T01:28:41.446Z,103
2023-03-16T01:29:47.697Z,103
2023-03-16T01:30:53.957Z,102
2023-03-16T01:31:59.296Z,102
2023-03-16T01:33:04.586Z,103
2023-03-16T01:34:10.816Z,103
2023-03-16T01:35:17.093Z,102
2023-03-16T01:36:23.371Z,103
2023-03-16T01:37:29.637Z,102
2023-03-16T01:38:35.910Z,103
2023-03-16T01:39:42.218Z,103
2023-03-16T01:40:48.447Z,102
2023-03-16T01:41:53.758Z,103
2023-03-16T01:43:00.019Z,102
2023-03-16T01:44:06.302Z,102
2023-03-16T01:45:12.557Z,103
2023-03-16T01:46:18.863Z,103
2023-03-16T01:47:25.119Z,102
2023-03-16T01:48:31.377Z,103
2023-03-16T01:49:37.687Z,102
2023-03-16T01:50:43.927Z,102
2023-03-16T01:51:50.187Z,102
2023-03-16T01:52:56.581Z,102
2023-03-16T01:54:02.764Z,103
2023-03-16T01:55:08.036Z,103
2023-03-16T01:56:13.336Z,102
2023-03-16T01:57:18.632Z,102
2023-03-16T01:58:23.924Z,103
2023-03-16T01:59:30.186Z,103
2023-03-16T02:00:35.581Z,103
2023-03-16T02:01:40.782Z,102
2023-03-16T02:02:47.053Z,103
2023-03-16T02:03:53.448Z,102
2023-03-16T02:04:59.600Z,103
2023-03-16T02:06:05.872Z,102
2023-03-16T02:07:12.155Z,103
2023-03-16T02:08:18.413Z,102
2023-03-16T02:09:24.685Z,102
2023-03-16T02:10:30.958Z,102
2023-03-16T02:11:37.232Z,102
2023-03-16T02:12:43.507Z,102
2023-03-16T02:13:49.770Z,102
2023-03-16T02:14:56.056Z,102
2023-03-16T02:16:01.347Z,102
2023-03-16T02:17:07.601Z,102
2023-03-16T02:18:13.885Z,102
2023-03-16T02:19:20.153Z,102
2023-03-16T02:20:26.429Z,103
2023-03-16T02:21:32.698Z,102
2023-03-16T02:22:38.980Z,102
2023-03-16T02:23:44.277Z,102
2023-03-16T02:24:49.563Z,103
2023-03-16T02:25:54.860Z,103
2023-03-16T02:27:00.168Z,103
2023-03-16T02:28:06.454Z,102
2023-03-16T02:29:12.702Z,102
2023-03-16T02:30:19.008Z,102
2023-03-16T02:31:25.238Z,102
2023-03-16T02:32:31.519Z,102
2023-03-16T02:33:37.783Z,103
2023-03-16T02:34:44.083Z,102
2023-03-16T02:35:50.329Z,103
2023-03-16T02:36:56.602Z,103
2023-03-16T02:38:02.879Z,103
2023-03-16T02:39:09.145Z,103
2023-03-16T02:40:15.423Z,103
2023-03-16T02:41:20.722Z,103
2023-03-16T02:42:26.993Z,103
2023-03-16T02:43:33.283Z,103
2023-03-16T02:44:39.557Z,102
2023-03-16T02:45:45.844Z,103
2023-03-16T02:46:52.075Z,102
2023-03-16T02:47:58.347Z,103
2023-03-16T02:49:03.656Z,102
2023-03-16T02:50:08.937Z,103
2023-03-16T02:51:15.205Z,102
2023-03-16T02:52:20.505Z,103
2023-03-16T02:53:25.786Z,103
2023-03-16T02:54:32.084Z,103
2023-03-16T02:55:38.343Z,102
2023-03-16T02:56:44.621Z,103
2023-03-16T02:57:50.874Z,103
2023-03-16T02:58:57.166Z,102
2023-03-16T03:00:03.426Z,102
2023-03-16T03:01:09.698Z,103
2023-03-16T03:02:15.972Z,102
2023-03-16T03:03:22.281Z,102
2023-03-16T03:04:28.597Z,103
2023-03-16T03:05:34.791Z,103
2023-03-16T03:06:41.064Z,103
2023-03-16T03:07:46.346Z,102
2023-03-16T03:08:52.622Z,102
2023-03-16T03:09:58.916Z,102
2023-03-16T03:11:05.172Z,102
2023-03-16T03:12:11.445Z,102
2023-03-16T03:13:17.713Z,102
2023-03-16T03:14:23.987Z,102
2023-03-16T03:15:29.283Z,102
2023-03-16T03:16:34.572Z,102
2023-03-16T03:17:39.876Z,102
2023-03-16T03:18:45.173Z,102
2023-03-16T03:19:51.434Z,102
2023-03-16T03:20:57.705Z,102
2023-03-16T03:22:04.001Z,102
2023-03-16T03:23:10.255Z,103
2023-03-16T03:24:16.525Z,103
2023-03-16T03:25:22.815Z,102
2023-03-16T03:26:29.084Z,102
2023-03-16T03:27:35.345Z,103
2023-03-16T03:28:41.614Z,103
2023-03-16T03:29:47.993Z,102
2023-03-16T03:30:54.194Z,102
2023-03-16T03:32:00.435Z,102
2023-03-16T03:33:05.811Z,103
2023-03-16T03:34:12.013Z,102
2023-03-16T03:35:18.272Z,102
2023-03-16T03:36:24.537Z,103
2023-03-16T03:37:30.860Z,103
2023-03-16T03:38:37.082Z,103
2023-03-16T03:39:43.353Z,103
2023-03-16T03:40:48.652Z,102
2023-03-16T03:41:53.936Z,103
2023-03-16T03:42:59.288Z,102
2023-03-16T03:44:04.533Z,102
2023-03-16T03:45:10.806Z,103
2023-03-16T03:46:17.067Z,102
2023-03-16T03:47:23.360Z,102
2023-03-16T03:48:29.624Z,102
2023-03-16T03:49:35.897Z,102
2023-03-16T03:50:42.180Z,102
2023-03-16T03:51:48.432Z,103
2023-03-16T03:52:54.709Z,103
2023-03-16T03:54:00.985Z,102
2023-03-16T03:55:07.258Z,103
2023-03-16T03:56:13.534Z,102
2023-03-16T03:57:19.805Z,102
2023-03-16T03:58:25.098Z,102
2023-03-16T03:59:31.352Z,102
2023-03-16T04:00:37.634Z,102
2023-03-16T04:01:43.916Z,102
2023-03-16T04:02:50.197Z,102
2023-03-16T04:03:56.452Z,102
2023-03-16T04:05:02.756Z,102
2023-03-16T04:06:08.036Z,102
2023-03-16T04:07:13.318Z,102
2023-03-16T04:08:18.646Z,103
2023-03-16T04:09:23.903Z,103
2023-03-16T04:10:30.177Z,103
2023-03-16T04:11:36.448Z,102
2023-03-16T04:12:42.737Z,102
2023-03-16T04:13:48.997Z,103
2023-03-16T04:14:55.265Z,102
2023-03-16T04:16:01.532Z,102
2023-03-16T04:17:07.811Z,103
2023-03-16T04:18:14.133Z,102
2023-03-16T04:19:20.351Z,102
2023-03-16T04:20:26.628Z,103
2023-03-16T04:21:32.894Z,102
2023-03-16T04:22:39.168Z,103
2023-03-16T04:23:44.477Z,102
2023-03-16T04:24:50.736Z,103
2023-03-16T04:25:57.010Z,103
2023-03-16T04:27:03.285Z,102
2023-03-16T04:28:09.549Z,102
2023-03-16T04:29:15.824Z,103
2023-03-16T04:30:22.090Z,102
2023-03-16T04:31:27.390Z,102
2023-03-16T04:32:32.683Z,102
2023-03-16T04:33:38.000Z,102
2023-03-16T04:34:44.272Z,102
2023-03-16T04:35:49.549Z,102
2023-03-16T04:36:55.822Z,103
2023-03-16T04:38:02.094Z,103
2023-03-16T04:39:08.367Z,102
2023-03-16T04:40:14.628Z,103
2023-03-16T04:41:20.906Z,102
2023-03-16T04:42:27.180Z,102
2023-03-16T04:43:33.494Z,102
2023-03-16T04:44:39.729Z,103
2023-03-16T04:45:46.032Z,103
2023-03-16T04:46:52.269Z,102
2023-03-16T04:47:58.548Z,102
2023-03-16T04:49:04.819Z,103
2023-03-16T04:50:10.128Z,103
2023-03-16T04:51:16.373Z,102
2023-03-16T04:52:22.651Z,103
2023-03-16T04:53:28.921Z,103
2023-03-16T04:54:35.196Z,103
2023-03-16T04:55:41.474Z,102
2023-03-16T04:56:46.800Z,103
2023-03-16T04:57:52.048Z,102
2023-03-16T04:58:57.355Z,103
2023-03-16T05:00:02.715Z,102
2023-03-16T05:01:08.945Z,102
2023-03-16T05:02:15.266Z,102
2023-03-16T05:03:21.459Z,102
2023-03-16T05:04:27.737Z,103
2023-03-16T05:05:34.010Z,103
2023-03-16T05:06:40.286Z,103
2023-03-16T05:07:46.576Z,102
2023-03-16T05:08:52.822Z,102
2023-03-16T05:09:59.105Z,103
2023-03-16T05:11:05.373Z,103
2023-03-16T05:12:11.811Z,102
2023-03-16T05:13:17.915Z,102
2023-03-16T05:14:23.204Z,102
2023-03-16T05:15:29.517Z,103
2023-03-16T05:16:35.752Z,102
2023-03-16T05:17:42.037Z,102
2023-03-16T05:18:48.304Z,102
2023-03-16T05:19:54.562Z,102
2023-03-16T05:21:00.830Z,102
2023-03-16T05:22:06.140Z,102
2023-03-16T05:23:11.436Z,102
2023-03-16T05:24:16.733Z,103
2023-03-16T05:25:22.024Z,103
2023-03-16T05:26:28.388Z,103
2023-03-16T05:27:34.569Z,102
2023-03-16T05:28:40.833Z,102
2023-03-16T05:29:47.109Z,102
2023-03-16T05:30:53.376Z,102
2023-03-16T05:31:59.654Z,102
2023-03-16T05:33:05.946Z,103
2023-03-16T05:34:12.204Z,103
2023-03-16T05:35:18.496Z,103
2023-03-16T05:36:24.755Z,102
2023-03-16T05:37:31.020Z,102
2023-03-16T05:38:37.295Z,102
2023-03-16T05:39:42.587Z,102
2023-03-16T05:40:48.856Z,103
2023-03-16T05:41:55.123Z,102
2023-03-16T05:43:01.419Z,103
2023-03-16T05:44:07.687Z,102
2023-03-16T05:45:13.964Z,103
2023-03-16T05:46:20.222Z,102
2023-03-16T05:47:25.543Z,103
2023-03-16T05:48:30.808Z,103
2023-03-16T05:49:37.158Z,103
2023-03-16T05:50:43.353Z,103
2023-03-16T05:51:49.625Z,103
2023-03-16T05:52:55.903Z,102
2023-03-16T05:54:02.170Z,103
2023-03-16T05:55:08.451Z,102
2023-03-16T05:56:14.709Z,103
2023-03-16T05:57:20.986Z,103
2023-03-16T05:58:27.264Z,102
2023-03-16T05:59:33.595Z,102
2023-03-16T06:00:39.804Z,102
2023-03-16T06:01:46.079Z,102
2023-03-16T06:02:51.368Z,103
2023-03-16T06:03:57.644Z,102
2023-03-16T06:05:03.921Z,102
2023-03-16T06:06:10.179Z,102
2023-03-16T06:07:16.458Z,103
2023-03-16T06:08:22.734Z,103
2023-03-16T06:09:29.003Z,102
2023-03-16T06:10:34.301Z,102
2023-03-16T06:11:39.598Z,103
2023-03-16T06:12:45.869Z,102
2023-03-16T06:13:51.160Z,103
2023-03-16T06:14:56.453Z,103
2023-03-16T06:16:01.759Z,103
2023-03-16T06:17:07.069Z,103
2023-03-16T06:18:13.310Z,102
2023-03-16T06:19:19.586Z,103
2023-03-16T06:20:25.855Z,103
2023-03-16T06:21:32.231Z,102
2023-03-16T06:22:38.417Z,102
2023-03-16T06:23:44.697Z,102
2023-03-16T06:24:50.959Z,103
2023-03-16T06:25:57.272Z,102
2023-03-16T06:27:03.551Z,102
2023-03-16T06:28:09.910Z,103
2023-03-16T06:29:16.081Z,103
2023-03-16T06:30:22.344Z,103
2023-03-16T06:31:27.664Z,102
2023-03-16T06:32:33.869Z,103
2023-03-16T06:33:40.162Z,102
2023-03-16T06:34:46.418Z,102
2023-03-16T06:35:52.697Z,102
2023-03-16T06:36:59.043Z,102
2023-03-16T06:38:05.320Z,102
2023-03-16T06:39:10.533Z,102
2023-03-16T06:40:15.902Z,103
2023-03-16T06:41:21.176Z,102
2023-03-16T06:42:26.418Z,103
2023-03-16T06:43:32.721Z,102
2023-03-16T06:44:38.977Z,102
2023-03-16T06:45:45.237Z,102
2023-03-16T06:46:51.590Z,102
2023-03-16T06:47:57.776Z,102
2023-03-16T06:49:04.054Z,103
2023-03-16T06:50:10.331Z,102
2023-03-16T06:51:16.591Z,102
2023-03-16T06:52:22.860Z,102
2023-03-16T06:53:29.135Z,103
2023-03-16T06:54:35.408Z,103
2023-03-16T06:55:41.684Z,102
2023-03-16T06:56:46.971Z,103
2023-03-16T06:57:53.240Z,102
2023-03-16T06:58:59.561Z,103
2023-03-16T07:00:05.843Z,102
2023-03-16T07:01:12.196Z,102
2023-03-16T07:02:18.338Z,102
2023-03-16T07:03:24.632Z,103
2023-03-16T07:04:29.992Z,103
2023-03-16T07:05:35.262Z,102
2023-03-16T07:06:40.494Z,103
2023-03-16T07:07:45.773Z,103
2023-03-16T07:08:52.059Z,102
2023-03-16T07:09:58.335Z,102
2023-03-16T07:11:04.685Z,102
2023-03-16T07:12:10.876Z,103
2023-03-16T07:13:17.172Z,103
2023-03-16T07:14:23.413Z,103
2023-03-16T07:15:29.685Z,103
2023-03-16T07:16:35.989Z,102
2023-03-16T07:17:42.276Z,103
2023-03-16T07:18:48.600Z,102
2023-03-16T07:19:54.800Z,102
2023-03-16T07:21:01.049Z,102
2023-03-16T07:22:06.429Z,102
2023-03-16T07:23:12.610Z,102
2023-03-16T07:24:18.953Z,102
2023-03-16T07:25:25.152Z,103
2023-03-16T07:26:31.449Z,102
2023-03-16T07:27:37.773Z,102
2023-03-16T07:28:43.987Z,102
2023-03-16T07:29:49.271Z,102
2023-03-16T07:30:54.556Z,102
2023-03-16T07:31:59.856Z,102
2023-03-16T07:33:05.178Z,103
2023-03-16T07:34:11.418Z,102
2023-03-16T07:35:17.699Z,102
2023-03-16T07:36:24.025Z,102
2023-03-16T07:37:30.339Z,102
2023-03-16T07:38:36.649Z,103
2023-03-16T07:39:42.847Z,102
2023-03-16T07:40:49.148Z,102
2023-03-16T07:41:55.441Z,102
2023-03-16T07:43:01.596Z,103
2023-03-16T07:44:07.918Z,102
2023-03-16T07:45:14.277Z,102
2023-03-16T07:46:20.417Z,103
2023-03-16T07:47:25.704Z,102
2023-03-16T07:48:31.974Z,103
2023-03-16T07:49:38.262Z,102
2023-03-16T07:50:44.531Z,102
2023-03-16T07:51:50.796Z,103
2023-03-16T07:52:57.070Z,102
2023-03-16T07:54:03.335Z,103
2023-03-16T07:55:08.639Z,103
2023-03-16T07:56:14.016Z,103
2023-03-16T07:57:20.191Z,102
2023-03-16T07:58:26.526Z,102
2023-03-16T07:59:32.804Z,102
2023-03-16T08:00:39.024Z,102
2023-03-16T08:02:50.719Z,102
2023-03-16T08:03:55.915Z,102
2023-03-16T08:05:01.243Z,103
2023-03-16T08:06:07.477Z,102
2023-03-16T08:07:13.763Z,102
2023-03-16T08:08:19.992Z,103
2023-03-16T08:09:26.323Z,102
2023-03-16T08:10:32.540Z,102
2023-03-16T08:11:38.804Z,103
2023-03-16T08:12:45.092Z,102
2023-03-16T08:13:51.351Z,103
2023-03-16T08:14:57.756Z,103
2023-03-16T08:16:03.897Z,102
2023-03-16T08:17:10.224Z,102
2023-03-16T08:18:16.514Z,103
2023-03-16T08:19:22.720Z,103
2023-03-16T08:20:28.082Z,102
2023-03-16T08:21:34.380Z,102
2023-03-16T08:22:40.555Z,102
2023-03-16T08:23:46.840Z,103
2023-03-16T08:25:59.507Z,102
2023-03-16T08:27:05.642Z,102
2023-03-16T08:28:10.954Z,102
2023-03-16T08:29:16.266Z,103
2023-03-16T08:30:21.534Z,102
2023-03-16T08:31:26.861Z,102
2023-03-16T08:32:33.117Z,102
2023-03-16T08:33:39.419Z,103
2023-03-16T08:34:45.678Z,102
2023-03-16T08:35:51.917Z,103
2023-03-16T08:36:58.253Z,103
2023-03-16T08:38:04.552Z,102
2023-03-16T08:39:10.733Z,103
2023-03-16T08:40:17.092Z,103
2023-03-16T08:41:23.320Z,103
2023-03-16T08:42:29.583Z,102
2023-03-16T08:43:35.949Z,102
2023-03-16T08:44:42.190Z,102
2023-03-16T08:45:48.479Z,103
2023-03-16T08:46:53.743Z,102
2023-03-16T08:47:59.947Z,103
2023-03-16T08:49:06.327Z,102
2023-03-16T08:50:12.462Z,102
2023-03-16T08:51:18.788Z,102
2023-03-16T08:52:24.991Z,102
2023-03-16T08:53:30.358Z,103
2023-03-16T08:54:35.587Z,102
2023-03-16T08:55:40.980Z,103
2023-03-16T08:56:46.284Z,102
2023-03-16T08:57:52.543Z,102
2023-03-16T08:58:58.835Z,103
2023-03-16T09:00:05.056Z,102
2023-03-16T09:01:11.360Z,103
2023-03-16T09:02:17.586Z,102
2023-03-16T09:03:23.886Z,102
2023-03-16T09:04:29.118Z,103
2023-03-16T09:05:35.406Z,103
2023-03-16T09:06:41.668Z,103
2023-03-16T09:07:47.951Z,102
2023-03-16T09:08:54.199Z,103
2023-03-16T09:10:00.468Z,103
2023-03-16T09:11:06.743Z,102
2023-03-16T09:12:12.997Z,102
2023-03-16T09:13:19.305Z,102
2023-03-16T09:14:25.540Z,102
2023-03-16T09:15:31.861Z,102
2023-03-16T09:16:38.085Z,102
2023-03-16T09:17:44.395Z,102
2023-03-16T09:18:49.719Z,102
2023-03-16T09:19:54.992Z,102
2023-03-16T09:21:00.260Z,102
2023-03-16T09:22:05.536Z,103
2023-03-16T09:23:11.875Z,102
2023-03-16T09:24:18.306Z,103
2023-03-16T09:25:24.395Z,103
2023-03-16T09:26:30.652Z,102
2023-03-16T09:27:37.123Z,103
2023-03-16T09:28:43.403Z,103
2023-03-16T09:29:49.614Z,102
2023-03-16T09:30:55.941Z,102
2023-03-16T09:32:02.003Z,102
2023-03-16T09:33:08.415Z,103
2023-03-16T09:34:14.668Z,102
2023-03-16T09:35:20.988Z,103
2023-03-16T09:36:26.275Z,102
2023-03-16T09:37:32.545Z,102
2023-03-16T09:38:38.823Z,102
2023-03-16T09:39:44.911Z,102
2023-03-16T09:40:51.237Z,103
2023-03-16T09:41:57.683Z,102
2023-03-16T09:43:03.766Z,102
2023-03-16T09:44:10.180Z,102
2023-03-16T09:45:15.450Z,102
2023-03-16T09:46:21.795Z,103
2023-03-16T09:47:27.090Z,103
2023-03-16T09:48:33.308Z,102
2023-03-16T09:49:38.607Z,102
2023-03-16T09:50:43.890Z,102
2023-03-16T09:51:50.171Z,103
2023-03-16T09:52:56.464Z,102
2023-03-16T09:54:02.716Z,103
2023-03-16T09:55:08.992Z,102
2023-03-16T09:56:15.189Z,102
2023-03-16T09:57:21.516Z,103
2023-03-16T09:58:27.849Z,102
2023-03-16T09:59:34.077Z,103
2023-03-16T10:00:40.310Z,102
2023-03-16T10:01:46.674Z,102
2023-03-16T10:02:52.934Z,102
2023-03-16T10:03:59.149Z,102
2023-03-16T10:05:04.401Z,103
2023-03-16T10:06:10.666Z,103
2023-03-16T10:07:16.992Z,103
2023-03-16T10:08:23.276Z,102
2023-03-16T10:09:29.615Z,103
2023-03-16T10:10:35.749Z,102
2023-03-16T10:11:42.041Z,103
2023-03-16T10:12:47.385Z,103
2023-03-16T10:13:52.750Z,102
2023-03-16T10:14:58.968Z,102
2023-03-16T10:16:05.116Z,102
2023-03-16T10:17:11.478Z,103
2023-03-16T10:18:16.691Z,103
2023-03-16T10:19:21.994Z,103
2023-03-16T10:20:28.263Z,102
2023-03-16T10:21:34.633Z,103
2023-03-16T10:22:40.897Z,102
2023-03-16T10:23:47.216Z,102
2023-03-16T10:24:53.399Z,102
2023-03-16T10:25:59.735Z,103
2023-03-16T10:27:06.048Z,102
2023-03-16T10:28:12.177Z,102
2023-03-16T10:29:18.551Z,103
2023-03-16T10:30:24.714Z,102
2023-03-16T10:31:31.061Z,103
2023-03-16T10:32:37.351Z,102
2023-03-16T10:33:42.667Z,102
2023-03-16T10:34:48.791Z,103
2023-03-16T10:35:55.207Z,103
2023-03-16T10:37:01.417Z,103
2023-03-16T10:38:07.728Z,103
2023-03-16T10:39:14.043Z,103
2023-03-16T10:40:20.121Z,103
2023-03-16T10:41:25.586Z,102
2023-03-16T10:42:30.907Z,103
2023-03-16T10:43:35.972Z,103
2023-03-16T10:44:41.431Z,103
2023-03-16T10:45:47.767Z,103
2023-03-16T10:46:53.818Z,102
2023-03-16T10:48:00.298Z,103
2023-03-16T10:49:06.536Z,103
2023-03-16T10:50:12.791Z,103
2023-03-16T10:51:19.133Z,102
2023-03-16T10:52:25.265Z,103
2023-03-16T10:53:31.698Z,103
2023-03-16T10:54:37.760Z,102
2023-03-16T10:55:44.191Z,103
2023-03-16T10:56:50.399Z,103
2023-03-16T10:57:56.611Z,102
2023-03-16T10:59:02.063Z,102
2023-03-16T11:00:08.259Z,103
2023-03-16T11:01:14.534Z,103
2023-03-16T11:02:20.867Z,102
2023-03-16T11:03:27.155Z,102
2023-03-16T11:04:33.374Z,102
2023-03-16T11:05:39.625Z,103
2023-03-16T11:06:45.936Z,103
2023-03-16T11:07:51.194Z,102
2023-03-16T11:08:56.728Z,103
2023-03-16T11:10:01.610Z,103
2023-03-16T11:11:07.074Z,102
2023-03-16T11:12:13.362Z,102
2023-03-16T11:13:19.649Z,102
2023-03-16T11:14:25.914Z,100
2023-03-16T11:15:32.144Z,100
2023-03-16T11:16:38.334Z,100
2023-03-16T11:17:44.760Z,99
2023-03-16T11:18:50.959Z,98
2023-03-16T11:19:57.133Z,98
2023-03-16T11:21:03.536Z,97
2023-03-16T11:22:09.804Z,95
2023-03-16T11:23:16.099Z,96
2023-03-16T11:24:22.338Z,95
2023-03-16T11:25:27.449Z,98
2023-03-16T11:26:33.817Z,99
2023-03-16T11:27:40.214Z,97
2023-03-16T11:28:46.425Z,96
2023-03-16T11:29:52.732Z,97
2023-03-16T11:30:58.994Z,98
2023-03-16T11:32:05.259Z,95
2023-03-16T11:33:11.544Z,95
2023-03-16T11:34:17.752Z,95
2023-03-16T11:35:23.889Z,95
2023-03-16T11:36:30.188Z,95
2023-03-16T11:37:36.429Z,91
2023-03-16T11:38:43.043Z,91
2023-03-16T11:39:48.165Z,92
2023-03-16T11:40:54.474Z,92
2023-03-16T11:42:00.749Z,91
2023-03-16T11:43:06.919Z,92
2023-03-16T11:44:13.235Z,91
2023-03-16T11:45:19.422Z,90
2023-03-16T11:46:25.787Z,91
2023-03-16T11:47:32.077Z,90
2023-03-16T11:48:38.346Z,88
2023-03-16T11:49:44.588Z,87
2023-03-16T11:50:50.848Z,88
2023-03-16T11:51:57.158Z,89
2023-03-16T11:53:03.358Z,87
2023-03-16T11:54:09.721Z,87
2023-03-16T11:55:14.941Z,86
2023-03-16T11:56:21.254Z,88
2023-03-16T11:57:27.460Z,87
2023-03-16T11:58:32.819Z,87
2023-03-16T11:59:39.093Z,82
2023-03-16T12:00:44.444Z,80
2023-03-16T12:01:49.584Z,84
2023-03-16T12:02:55.989Z,75
2023-03-16T12:04:02.195Z,77
2023-03-16T12:05:08.498Z,80
2023-03-16T12:06:14.747Z,76
2023-03-16T12:07:21.038Z,75
2023-03-16T12:08:27.282Z,77
2023-03-16T12:09:33.644Z,75
2023-03-16T12:10:39.836Z,74
2023-03-16T12:11:45.937Z,71
2023-03-16T12:12:52.398Z,71
2023-03-16T12:13:58.640Z,72
2023-03-16T12:15:04.947Z,71
2023-03-16T12:16:11.227Z,72
2023-03-16T12:17:17.525Z,71
2023-03-16T12:18:22.595Z,68
2023-03-16T12:19:29.022Z,68
2023-03-16T12:20:35.276Z,69
2023-03-16T12:21:41.595Z,72
2023-03-16T12:22:47.843Z,67
2023-03-16T12:23:54.148Z,66
2023-03-16T12:25:00.345Z,65
2023-03-16T12:26:06.495Z,65
2023-03-16T12:27:12.751Z,67
2023-03-16T12:28:19.052Z,67
2023-03-16T12:29:25.370Z,67
2023-03-16T12:30:31.576Z,69
2023-03-16T12:31:37.911Z,67
2023-03-16T12:32:43.136Z,68
2023-03-16T12:33:49.405Z,66
2023-03-16T12:34:55.772Z,69
2023-03-16T12:36:01.997Z,67
2023-03-16T12:37:08.285Z,66
2023-03-16T12:38:14.509Z,66
2023-03-16T12:39:20.761Z,68
2023-03-16T12:40:27.037Z,66
2023-03-16T12:41:33.310Z,65
2023-03-16T12:42:39.592Z,68
2023-03-16T12:43:45.869Z,65
2023-03-16T12:44:52.125Z,64
2023-03-16T12:45:57.613Z,62
2023-03-16T12:47:03.684Z,68
2023-03-16T12:48:09.948Z,62
2023-03-16T12:49:16.270Z,61
2023-03-16T12:50:22.576Z,64
2023-03-16T12:51:28.806Z,67
2023-03-16T12:52:35.048Z,65
2023-03-16T12:53:41.313Z,65
2023-03-16T12:54:47.584Z,65
2023-03-16T12:55:53.859Z,68
2023-03-16T12:57:00.170Z,68
2023-03-16T12:58:05.491Z,65
2023-03-16T12:59:10.795Z,62
2023-03-16T13:00:17.102Z,65
2023-03-16T13:01:23.268Z,66
2023-03-16T13:02:29.529Z,66
2023-03-16T13:03:34.839Z,66
2023-03-16T13:04:40.129Z,62
2023-03-16T13:05:46.392Z,68
2023-03-16T13:06:52.660Z,63
2023-03-16T13:07:58.939Z,65
2023-03-16T13:09:05.206Z,63
2023-03-16T13:10:11.517Z,66
2023-03-16T13:11:17.770Z,66
2023-03-16T13:12:24.018Z,65
2023-03-16T13:13:30.290Z,63
2023-03-16T13:14:36.572Z,66
2023-03-16T13:15:42.835Z,65
2023-03-16T13:16:49.111Z,66
2023-03-16T13:17:55.373Z,65
2023-03-16T13:19:00.772Z,67
2023-03-16T13:20:06.933Z,65
2023-03-16T13:21:13.213Z,66
2023-03-16T13:22:19.493Z,68
2023-03-16T13:23:25.793Z,65
2023-03-16T13:24:32.035Z,66
2023-03-16T13:25:38.497Z,69
2023-03-16T13:26:43.600Z,64
2023-03-16T13:27:48.888Z,64
2023-03-16T13:28:54.194Z,64
2023-03-16T13:29:59.516Z,63
2023-03-16T13:31:05.750Z,65
2023-03-16T13:32:12.022Z,66
2023-03-16T13:33:18.329Z,66
2023-03-16T13:34:24.643Z,63
2023-03-16T13:35:30.886Z,64
2023-03-16T13:36:37.103Z,67
2023-03-16T13:37:43.370Z,65
2023-03-16T13:38:49.639Z,66
2023-03-16T13:39:55.950Z,68
2023-03-16T13:41:02.186Z,67
2023-03-16T13:42:08.481Z,65
2023-03-16T13:43:14.722Z,65
2023-03-16T13:44:20.022Z,65
2023-03-16T13:45:26.302Z,63
2023-03-16T13:46:32.618Z,66
2023-03-16T13:47:38.900Z,66
2023-03-16T13:48:45.103Z,65
2023-03-16T13:49:51.373Z,64
2023-03-16T13:50:57.707Z,62
2023-03-16T13:52:03.938Z,67
2023-03-16T13:53:10.192Z,64
2023-03-16T13:54:15.573Z,64
2023-03-16T13:55:20.829Z,64
2023-03-16T13:56:26.071Z,66
2023-03-16T13:57:31.366Z,64
2023-03-16T13:58:37.638Z,66
2023-03-16T13:59:43.941Z,66
2023-03-16T14:00:50.182Z,67
2023-03-16T14:01:56.448Z,67
2023-03-16T14:03:02.741Z,63
2023-03-16T14:04:09.007Z,66
2023-03-16T14:05:15.268Z,66
2023-03-16T14:06:21.536Z,67
2023-03-16T14:07:27.803Z,68
2023-03-16T14:08:34.170Z,67
2023-03-16T14:09:40.351Z,64
2023-03-16T14:10:46.625Z,67
2023-03-16T14:11:52.898Z,63
2023-03-16T14:12:59.163Z,66
2023-03-16T14:14:04.458Z,67
2023-03-16T14:15:10.716Z,69
2023-03-16T14:16:16.996Z,65
2023-03-16T14:17:23.264Z,63
2023-03-16T14:18:29.539Z,67
2023-03-16T14:19:34.845Z,68
2023-03-16T14:20:40.118Z,64
2023-03-16T14:21:46.403Z,67
2023-03-16T14:22:51.688Z,66
2023-03-16T14:23:56.998Z,63
2023-03-16T14:25:03.336Z,66
2023-03-16T14:26:09.538Z,65
2023-03-16T14:27:15.794Z,65
2023-03-16T14:28:22.071Z,63
2023-03-16T14:29:28.336Z,66
2023-03-16T14:30:34.606Z,65
2023-03-16T14:31:40.915Z,65
2023-03-16T14:32:47.159Z,66
2023-03-16T14:33:53.416Z,67
2023-03-16T14:34:59.691Z,60
2023-03-16T14:36:05.982Z,68
2023-03-16T14:37:12.261Z,63
2023-03-16T14:38:17.534Z,65
2023-03-16T14:39:23.798Z,65
2023-03-16T14:40:30.068Z,65
2023-03-16T14:41:36.341Z,64
2023-03-16T14:42:42.610Z,62
2023-03-16T14:43:48.882Z,67
2023-03-16T14:44:55.169Z,64
2023-03-16T14:46:01.447Z,65
2023-03-16T14:47:07.798Z,62
2023-03-16T14:48:13.991Z,62
2023-03-16T14:49:19.270Z,64
2023-03-16T14:50:24.579Z,65
2023-03-16T14:51:29.860Z,64
2023-03-16T14:52:35.174Z,65
2023-03-16T14:53:41.494Z,62
2023-03-16T14:54:47.693Z,62
2023-03-16T14:55:53.996Z,67
2023-03-16T14:57:00.230Z,67
2023-03-16T14:58:06.511Z,62
2023-03-16T14:59:12.766Z,62
2023-03-16T15:00:19.044Z,66
2023-03-16T15:01:25.314Z,65
2023-03-16T15:02:31.672Z,68
2023-03-16T15:03:37.870Z,62
2023-03-16T15:04:44.243Z,66
2023-03-16T15:05:50.560Z,64
2023-03-16T15:06:55.796Z,64
2023-03-16T15:08:02.091Z,61
2023-03-16T15:09:08.334Z,65
2023-03-16T15:10:14.667Z,64
2023-03-16T15:11:20.782Z,63
2023-03-16T15:12:27.079Z,62
2023-03-16T15:13:33.318Z,63
2023-03-16T15:14:39.632Z,66
2023-03-16T15:15:45.875Z,66
2023-03-16T15:16:51.223Z,66
2023-03-16T15:17:56.444Z,64
2023-03-16T15:19:02.727Z,64
2023-03-16T15:20:08.024Z,64